createdAt,value
2022-07-30T00:00:58.746Z,96200.97
2022-07-30T00:06:01.030Z,96164.06
2022-07-30T00:11:03.361Z,96176.94
2022-07-30T00:16:05.694Z,96183.97
2022-07-30T00:21:07.848Z,96173.22
2022-07-30T00:26:13.328Z,96182.91
2022-07-30T00:31:15.570Z,96190.00
2022-07-30T00:36:17.879Z,96177.28
2022-07-30T00:41:20.783Z,96176.72
2022-07-30T00:46:23.336Z,96181.47
2022-07-30T00:51:26.298Z,96168.09
2022-07-30T00:56:32.732Z,96181.94
2022-07-30T01:01:36.348Z,96177.72
2022-07-30T01:06:40.449Z,96167.81
2022-07-30T01:11:43.534Z,96176.72
2022-07-30T01:16:45.758Z,96176.16
2022-07-30T01:21:54.856Z,96172.09
2022-07-30T01:26:58.928Z,96173.03
2022-07-30T01:32:03.167Z,96168.69
2022-07-30T01:37:08.738Z,96166.31
2022-07-30T01:42:14.042Z,96173.31
2022-07-30T01:47:19.152Z,96170.25
2022-07-30T01:52:25.211Z,96175.78
2022-07-30T01:57:29.912Z,96153.75
2022-07-30T02:02:32.296Z,96155.72
2022-07-30T02:07:46.200Z,96153.75
2022-07-30T02:12:55.635Z,96164.34
2022-07-30T02:18:18.609Z,96137.84
2022-07-30T02:23:28.571Z,96144.28
2022-07-30T02:28:35.298Z,96143.53
2022-07-30T02:33:48.853Z,96155.25
2022-07-30T02:38:52.805Z,96160.81
2022-07-30T02:43:56.388Z,96146.22
2022-07-30T02:48:59.569Z,96152.94
2022-07-30T02:54:04.186Z,96166.69
2022-07-30T02:59:07.361Z,96164.16
2022-07-30T03:04:11.315Z,96157.34
2022-07-30T03:09:16.881Z,96158.06
2022-07-30T03:14:19.363Z,96155.13
2022-07-30T03:19:24.424Z,96165.53
2022-07-30T03:24:28.077Z,96162.03
2022-07-30T03:29:32.105Z,96168.28
2022-07-30T03:34:35.614Z,96166.34
2022-07-30T03:39:38.827Z,96171.41
2022-07-30T03:44:42.209Z,96167.69
2022-07-30T03:49:44.581Z,96170.31
2022-07-30T03:54:47.740Z,96176.22
2022-07-30T03:59:56.256Z,96184.16
2022-07-30T04:04:58.734Z,96183.16
2022-07-30T04:10:00.893Z,96177.25
2022-07-30T04:16:37.424Z,96180.22
2022-07-30T04:20:52.320Z,96172.59
2022-07-30T04:25:56.244Z,96178.03
2022-07-30T04:30:59.845Z,96170.66
2022-07-30T04:36:07.216Z,96163.53
2022-07-30T04:41:11.721Z,96160.75
2022-07-30T04:46:34.073Z,96160.22
2022-07-30T04:51:38.699Z,96152.41
2022-07-30T04:56:42.691Z,96155.66
2022-07-30T05:01:59.066Z,96154.78
2022-07-30T05:07:03.078Z,96157.13
2022-07-30T05:12:05.769Z,96144.84
2022-07-30T05:17:08.294Z,96152.91
2022-07-30T05:22:11.209Z,96154.06
2022-07-30T05:27:13.764Z,96141.38
2022-07-30T05:32:16.006Z,96151.47
2022-07-30T05:37:20.031Z,96152.28
2022-07-30T05:42:22.190Z,96139.75
2022-07-30T05:47:27.763Z,96147.03
2022-07-30T05:52:30.583Z,96150.22
2022-07-30T05:57:42.296Z,96149.34
2022-07-30T06:02:45.211Z,96137.22
2022-07-30T06:08:07.823Z,96143.66
2022-07-30T06:13:10.287Z,96120.50
2022-07-30T06:18:28.484Z,96089.38
2022-07-30T06:23:31.094Z,96107.91
2022-07-30T06:28:53.036Z,96108.53
2022-07-30T06:34:02.190Z,96086.91
2022-07-30T06:39:10.234Z,96073.69
2022-07-30T06:44:38.696Z,96083.28
2022-07-30T06:49:56.860Z,96068.63
2022-07-30T06:55:03.040Z,96057.50
2022-07-30T07:00:27.659Z,96056.97
2022-07-30T07:05:32.361Z,96047.13
2022-07-30T07:10:34.719Z,96040.09
2022-07-30T07:16:06.375Z,96034.97
2022-07-30T07:21:10.801Z,96035.81
2022-07-30T07:26:13.358Z,96034.16
2022-07-30T07:32:05.642Z,96037.97
2022-07-30T07:36:38.167Z,96045.06
2022-07-30T07:41:49.346Z,96046.22
2022-07-30T07:46:57.722Z,96040.88
2022-07-30T07:52:05.432Z,96043.41
2022-07-30T07:57:10.313Z,96038.09
2022-07-30T08:02:16.652Z,96038.06
2022-07-30T08:07:19.009Z,96042.38
2022-07-30T08:12:39.929Z,96050.00
2022-07-30T08:18:00.659Z,96046.22
2022-07-30T08:23:19.428Z,96034.91
2022-07-30T08:28:36.583Z,96036.81
2022-07-30T08:33:42.037Z,96037.69
2022-07-30T08:38:44.443Z,96024.25
2022-07-30T08:43:50.411Z,96023.84
2022-07-30T08:48:55.439Z,96029.88
2022-07-30T08:54:01.315Z,96039.34
2022-07-30T08:59:05.729Z,96026.25
2022-07-30T09:04:08.632Z,96033.34
2022-07-30T09:09:11.194Z,96018.53
2022-07-30T09:14:15.453Z,96017.22
2022-07-30T09:19:24.427Z,96009.44
2022-07-30T09:24:42.379Z,95995.09
2022-07-30T09:30:08.753Z,95994.97
2022-07-30T09:35:43.620Z,95999.66
2022-07-30T09:40:53.201Z,95998.50
2022-07-30T09:46:22.953Z,95990.06
2022-07-30T09:51:59.433Z,95994.53
2022-07-30T09:57:23.062Z,95988.94
2022-07-30T10:02:33.179Z,95981.91
2022-07-30T10:08:01.097Z,95990.09
2022-07-30T10:13:07.648Z,95971.19
2022-07-30T10:18:11.050Z,95975.97
2022-07-30T10:23:33.564Z,95987.19
2022-07-30T10:28:57.238Z,95962.63
2022-07-30T10:34:00.681Z,95963.31
2022-07-30T10:39:03.831Z,95946.78
2022-07-30T10:44:35.139Z,95952.56
2022-07-30T10:49:41.134Z,95945.41
2022-07-30T10:54:47.613Z,95939.75
2022-07-30T10:59:53.270Z,95945.53
2022-07-30T11:05:32.580Z,95930.78
2022-07-30T11:10:43.971Z,95921.72
2022-07-30T11:15:57.009Z,95925.63
2022-07-30T11:21:21.458Z,95929.47
2022-07-30T11:26:41.138Z,95915.78
2022-07-30T11:31:56.980Z,95903.91
2022-07-30T11:37:18.922Z,95909.25
2022-07-30T11:42:36.435Z,95895.88
2022-07-30T11:47:38.870Z,95878.47
2022-07-30T11:52:41.084Z,95890.50
2022-07-30T11:57:45.732Z,95872.09
2022-07-30T12:08:00.216Z,95865.84
2022-07-30T12:13:14.837Z,95862.69
2022-07-30T12:18:27.930Z,95854.16
2022-07-30T12:23:31.837Z,95819.69
2022-07-30T12:28:36.071Z,95828.81
2022-07-30T12:33:42.103Z,95830.94
2022-07-30T12:38:49.111Z,95834.97
2022-07-30T12:43:58.498Z,95825.59
2022-07-30T12:49:19.076Z,95814.22
2022-07-30T12:54:24.997Z,95802.72
2022-07-30T12:59:27.921Z,95801.59
2022-07-30T13:04:31.901Z,95790.19
2022-07-30T13:09:35.626Z,95773.06
2022-07-30T13:14:38.235Z,95778.69
2022-07-30T13:19:40.513Z,95755.72
2022-07-30T13:24:44.111Z,95741.19
2022-07-30T13:29:46.294Z,95748.97
2022-07-30T13:34:49.201Z,95744.97
2022-07-30T13:39:51.534Z,95751.03
2022-07-30T13:44:53.821Z,95745.44
2022-07-30T13:49:56.286Z,95740.41
2022-07-30T13:54:58.432Z,95740.75
2022-07-30T14:00:00.582Z,95740.63
2022-07-30T14:05:09.667Z,95719.63
2022-07-30T14:10:12.120Z,95716.53
2022-07-30T14:15:17.725Z,95703.38
2022-07-30T14:20:21.480Z,95708.91
2022-07-30T14:25:23.912Z,95719.47
2022-07-30T14:30:26.135Z,95703.16
2022-07-30T14:35:28.273Z,95692.25
2022-07-30T14:40:33.032Z,95698.94
2022-07-30T14:45:36.735Z,95683.38
2022-07-30T14:51:11.315Z,95696.06
2022-07-30T14:56:05.017Z,95692.91
2022-07-30T15:01:15.732Z,95685.34
2022-07-30T15:06:19.045Z,95688.44
2022-07-30T15:11:21.902Z,95688.28
2022-07-30T15:16:24.577Z,95681.16
2022-07-30T15:21:27.108Z,95687.00
2022-07-30T15:26:29.326Z,95674.47
2022-07-30T15:31:31.547Z,95682.38
2022-07-30T15:36:33.801Z,95677.88
2022-07-30T15:41:37.170Z,95672.22
2022-07-30T15:46:39.425Z,95673.56
2022-07-30T15:51:47.817Z,95687.00
2022-07-30T15:56:51.161Z,95686.19
2022-07-30T16:01:53.605Z,95688.25
2022-07-30T16:06:57.418Z,95679.38
2022-07-30T16:12:00.101Z,95680.94
2022-07-30T16:17:02.380Z,95707.22
2022-07-30T16:22:14.831Z,95696.63
2022-07-30T16:27:18.445Z,95688.69
2022-07-30T16:32:20.761Z,95686.91
2022-07-30T16:37:22.941Z,95716.56
2022-07-30T16:42:25.204Z,95700.56
2022-07-30T16:47:34.287Z,95709.47
2022-07-30T16:52:37.965Z,95713.88
2022-07-30T16:57:40.309Z,95724.75
2022-07-30T17:02:42.503Z,95723.34
2022-07-30T17:07:44.681Z,95724.50
2022-07-30T17:12:50.913Z,95744.59
2022-07-30T17:17:56.164Z,95750.63
2022-07-30T17:23:01.596Z,95750.75
2022-07-30T17:28:04.469Z,95730.63
2022-07-30T17:33:06.770Z,95764.88
2022-07-30T17:38:08.994Z,95746.25
2022-07-30T17:43:14.027Z,95761.38
2022-07-30T17:48:18.310Z,95768.97
2022-07-30T17:53:20.609Z,95766.25
2022-07-30T17:58:22.904Z,95762.50
2022-07-30T18:03:25.753Z,95794.44
2022-07-30T18:08:32.658Z,95785.88
2022-07-30T18:13:35.141Z,95774.81
2022-07-30T18:18:38.556Z,95789.41
2022-07-30T18:23:40.900Z,95797.84
2022-07-30T18:28:43.588Z,95802.44
2022-07-30T18:33:45.864Z,95799.69
2022-07-30T18:38:49.898Z,95822.06
2022-07-30T18:43:56.069Z,95818.63
2022-07-30T18:49:10.642Z,95812.16
2022-07-30T18:54:20.666Z,95831.59
2022-07-30T18:59:22.900Z,95822.28
2022-07-30T19:04:25.107Z,95828.44
2022-07-30T19:09:27.863Z,95841.19
2022-07-30T19:14:30.109Z,95837.44
2022-07-30T19:19:32.263Z,95847.72
2022-07-30T19:24:34.640Z,95848.75
2022-07-30T19:29:37.222Z,95843.94
2022-07-30T19:34:40.749Z,95828.41
2022-07-30T19:40:06.390Z,95841.44
2022-07-30T19:45:11.715Z,95845.09
2022-07-30T19:50:14.156Z,95845.59
2022-07-30T19:55:17.136Z,95854.13
2022-07-30T20:00:35.672Z,95864.59
2022-07-30T20:05:57.456Z,95871.59
2022-07-30T20:11:02.673Z,95889.75
2022-07-30T20:16:11.382Z,95924.44
2022-07-30T20:21:16.197Z,95911.44
2022-07-30T20:26:18.973Z,95911.28
2022-07-30T20:31:21.719Z,95925.94
2022-07-30T20:36:24.140Z,95919.00
2022-07-30T20:41:29.114Z,95936.72
2022-07-30T20:46:34.303Z,95958.66
2022-07-30T20:51:37.704Z,95983.50
2022-07-30T20:56:39.977Z,96021.78
2022-07-30T21:01:42.511Z,96033.81
2022-07-30T21:06:46.118Z,96032.13
2022-07-30T21:11:51.862Z,96067.38
2022-07-30T21:16:56.201Z,96095.72
2022-07-30T21:22:01.843Z,96144.50
2022-07-30T21:27:30.005Z,96132.50
2022-07-30T21:32:32.378Z,96146.47
2022-07-30T21:37:37.554Z,96143.19
2022-07-30T21:42:48.319Z,96134.53
2022-07-30T21:47:57.767Z,96123.00
2022-07-30T21:53:02.132Z,96141.69
2022-07-30T21:58:05.728Z,96165.50
2022-07-30T22:03:15.985Z,96149.75
2022-07-30T22:08:30.770Z,96143.97
2022-07-30T22:13:34.928Z,96139.97
2022-07-30T22:18:53.742Z,96105.47
2022-07-30T22:23:58.415Z,96090.03
2022-07-30T22:29:04.164Z,96110.66
2022-07-30T22:34:11.297Z,96107.41
2022-07-30T22:39:13.990Z,96102.59
2022-07-30T22:44:16.144Z,96086.13
2022-07-30T22:49:23.896Z,96065.13
2022-07-30T22:54:29.157Z,96045.81
2022-07-30T22:59:57.976Z,96037.94
2022-07-30T23:04:53.669Z,96047.94
2022-07-30T23:09:55.926Z,96042.13
2022-07-30T23:14:59.109Z,96024.63
2022-07-30T23:20:01.406Z,96024.47
2022-07-30T23:25:06.487Z,96007.81
2022-07-30T23:30:10.452Z,96027.59
2022-07-30T23:35:12.824Z,96037.59
2022-07-30T23:40:15.502Z,96013.34
2022-07-30T23:45:18.681Z,96025.03
2022-07-30T23:50:21.066Z,96023.78
2022-07-30T23:55:23.677Z,96025.28
